Flight Track Log - Related Links

Times and Time Zones

All times are in EDT time to prevent confusion due to time zone crossing. See the UPS1121 flight status page for this flight to view local times or setup timezone preferences in your user account.

Time Position Orientation Groundspeed Altitude Reporting Facility
EDT Latitude Longitude Course Direction KTS MPH feet Rate Location/Type
Tue 09:58:19 PM 41.9333 -72.6997 211° Southwest 170 196 1,200  Level Boston Center
Tue 10:03:34 PM 41.6840 -72.8970 139° Southeast 356 410 13,100 2,331 Climbing FlightAware ADS-B
Tue 10:03:51 PM 41.6710 -72.8710 124° Southeast 361 415 14,100 1,655 Climbing FlightAware ADS-B
Tue 10:04:32 PM 41.6450 -72.8000 116° Southeast 371 427 14,700 1,979 Climbing FlightAware ADS-B
Tue 10:05:25 PM 41.6270 -72.7850 148° Southeast 372 428 17,200 3,940 Climbing FlightAware ADS-B
Tue 10:05:39 PM 41.5110 -72.7830 179° South 382 440 19,100 3,429 Climbing FlightAware ADS-B
Tue 10:06:14 PM 41.4510 -72.7850 181° South 379 436 20,000 675 Climbing FlightAware ADS-B
Tue 10:06:59 PM 41.3710 -72.7880 182° South 377 434 20,000  Level FlightAware ADS-B
Tue 10:07:39 PM 41.3040 -72.7890 181° South 381 438 20,000  Level FlightAware ADS-B
Tue 10:08:19 PM 41.2250 -72.7910 181° South 390 449 20,000  Level FlightAware ADS-B
Tue 10:08:54 PM 41.1620 -72.7930 181° South 390 449 20,000  Level FlightAware ADS-B
Tue 10:09:29 PM 41.1000 -72.7940 181° South 389 448 20,000  Level FlightAware ADS-B
Tue 10:10:04 PM 41.0370 -72.7960 181° South 392 451 20,000  Level FlightAware ADS-B
Tue 10:10:39 PM 40.9720 -72.7990 182° South 390 449 20,000  Level FlightAware ADS-B
Tue 10:11:17 PM 40.9032 -72.8260 197° South 386 444 20,000  Level FlightAware ADS-B
Tue 10:11:27 PM 40.8890 -72.8361 208° Southwest 378 435 20,000  Level FlightAware ADS-B
Tue 10:11:58 PM 40.8415 -72.8708 209° Southwest 378 435 20,000  Level FlightAware ADS-B
Tue 10:12:31 PM 40.7907 -72.9078 209° Southwest 378 435 20,000  Level FlightAware ADS-B
Tue 10:13:04 PM 40.7401 -72.9443 209° Southwest 378 435 20,000  Level FlightAware ADS-B
Tue 10:13:35 PM 40.6918 -72.9791 209° Southwest 379 436 20,000  Level FlightAware ADS-B
Tue 10:14:05 PM 40.6456 -73.0124 209° Southwest 379 436 20,000  Level FlightAware ADS-B
Tue 10:14:36 PM 40.5977 -73.0469 209° Southwest 381 438 20,000  Level FlightAware ADS-B
Tue 10:15:10 PM 40.5458 -73.0842 209° Southwest 383 441 20,000  Level FlightAware ADS-B
Tue 10:15:40 PM 40.4984 -73.1182 209° Southwest 384 442 20,000  Level FlightAware ADS-B
Tue 10:16:10 PM 40.4511 -73.1520 209° Southwest 385 443 20,000  Level FlightAware ADS-B
Tue 10:16:40 PM 40.4038 -73.1859 209° Southwest 387 445 20,000  Level FlightAware ADS-B
Tue 10:17:11 PM 40.3560 -73.2202 209° Southwest 388 447 20,000  Level FlightAware ADS-B
Tue 10:17:46 PM 40.3009 -73.2596 209° Southwest 388 447 20,000  Level FlightAware ADS-B
Tue 10:18:16 PM 40.2530 -73.2939 209° Southwest 388 447 20,000  Level FlightAware ADS-B
Tue 10:18:50 PM 40.2002 -73.3315 209° Southwest 390 449 20,000  Level FlightAware ADS-B
Tue 10:19:22 PM 40.1488 -73.3681 209° Southwest 391 450 20,000  Level FlightAware ADS-B
Tue 10:19:56 PM 40.0952 -73.4063 209° Southwest 391 450 20,000  Level FlightAware ADS-B
Tue 10:20:27 PM 40.0463 -73.4410 209° Southwest 391 450 20,000  Level FlightAware ADS-B
Tue 10:20:55 PM 40.0018 -73.4743 210° Southwest 389 448 20,000  Level FlightAware ADS-B
Tue 10:21:09 PM 39.9810 -73.4942 216° Southwest 388 447 20,000  Level FlightAware ADS-B
Tue 10:21:25 PM 39.9597 -73.5192 222° Southwest 387 445 20,000  Level FlightAware ADS-B
Tue 10:21:56 PM 39.9227 -73.5716 227° Southwest 387 445 20,000  Level FlightAware ADS-B
Tue 10:22:27 PM 39.8850 -73.6258 228° Southwest 387 445 20,000  Level FlightAware ADS-B
Tue 10:22:58 PM 39.8483 -73.6785 228° Southwest 385 443 20,000  Level FlightAware ADS-B
Tue 10:23:30 PM 39.8102 -73.7333 228° Southwest 383 441 20,000  Level FlightAware ADS-B
Tue 10:24:00 PM 39.7740 -73.7850 228° Southwest 382 440 20,000  Level FlightAware ADS-B
Tue 10:24:32 PM 39.7367 -73.8383 228° Southwest 382 440 20,000 -94 Level FlightAware ADS-B
Tue 10:25:04 PM 39.6993 -73.8918 228° Southwest 352 405 19,900 -1,161 Descending FlightAware ADS-B
Tue 10:25:34 PM 39.6657 -73.9398 228° Southwest 361 415 18,800 -1,770 Descending FlightAware ADS-B
Tue 10:26:05 PM 39.6316 -73.9887 228° Southwest 360 414 18,100 -1,672 Descending FlightAware ADS-B
Tue 10:26:35 PM 39.5981 -74.0364 228° Southwest 349 402 17,100 -2,400 Descending FlightAware ADS-B
Tue 10:27:05 PM 39.5657 -74.0828 228° Southwest 345 397 15,700 -2,706 Descending FlightAware ADS-B
Tue 10:27:26 PM 39.5435 -74.1151 228° Southwest 342 394 14,800 -2,538 Descending FlightAware ADS-B
Tue 10:27:31 PM 39.5391 -74.1236 236° Southwest 341 392 14,600 -2,000 Descending FlightAware ADS-B
Tue 10:27:41 PM 39.5321 -74.1419 244° Southwest 341 392 14,300 -1,200 Descending FlightAware ADS-B
Tue 10:27:51 PM 39.5278 -74.1617 254° West 342 394 14,200 -429 Descending FlightAware ADS-B
Tue 10:27:55 PM 39.5269 -74.1694 261° West 344 396 14,200  Level FlightAware ADS-B
Tue 10:28:03 PM 39.5264 -74.1846 268° West 344 396 14,200 -188 Level FlightAware ADS-B
Tue 10:28:27 PM 39.5269 -74.2355 271° West 341 392 14,100 -109 Descending FlightAware ADS-B
Tue 10:28:58 PM 39.5282 -74.2984 272° West 345 397 14,100  Level FlightAware ADS-B
Tue 10:29:28 PM 39.5294 -74.3618 271° West 349 402 14,100 -97 Level FlightAware ADS-B
Tue 10:30:00 PM 39.5306 -74.4250 271° West 325 374 14,000 -1,161 Descending FlightAware ADS-B
Tue 10:30:30 PM 39.5316 -74.4827 271° West 317 365 12,900 -2,323 Descending FlightAware ADS-B
Tue 10:31:02 PM 39.5324 -74.5436 271° West 320 368 11,600 -2,250 Descending FlightAware ADS-B
Tue 10:31:34 PM 39.5330 -74.6055 271° West 310 357 10,500 -1,238 Descending FlightAware ADS-B
Tue 10:32:05 PM 39.5336 -74.6600 271° West 281 323 10,300 -600 Descending FlightAware ADS-B
Tue 10:32:34 PM 39.5342 -74.7074 271° West 263 303 9,900 -1,067 Descending FlightAware ADS-B
Tue 10:32:50 PM 39.5345 -74.7325 271° West 261 300 9,500 -1,455 Descending FlightAware ADS-B
Tue 10:33:07 PM 39.5349 -74.7590 271° West 261 300 9,100 -889 Descending FlightAware ADS-B
Tue 10:33:17 PM 39.5351 -74.7741 271° West 262 302 9,100  Level FlightAware ADS-B
Tue 10:33:32 PM 39.5355 -74.7982 271° West 265 305 9,100  Level FlightAware ADS-B
Tue 10:33:50 PM 39.5359 -74.8278 271° West 272 313 9,100  Level FlightAware ADS-B
Tue 10:34:05 PM 39.5362 -74.8524 271° West 271 312 9,100  Level FlightAware ADS-B
Tue 10:34:25 PM 39.5364 -74.8854 270° West 274 315 9,100  Level FlightAware ADS-B
Tue 10:34:41 PM 39.5370 -74.9120 272° West 275 316 9,100  Level FlightAware ADS-B
Tue 10:34:50 PM 39.5392 -74.9256 282° West 273 314 9,100 -353 Level FlightAware ADS-B
Tue 10:34:58 PM 39.5436 -74.9377 295° West 272 313 9,000 -545 Descending FlightAware ADS-B
Tue 10:35:01 PM 39.5460 -74.9419 307° West 272 313 9,000 -857 Level FlightAware ADS-B
Tue 10:35:05 PM 39.5487 -74.9459 311° West 273 314 8,900 -857 Descending FlightAware ADS-B
Tue 10:35:08 PM 39.5520 -74.9499 317° Northwest 273 314 8,900 -1,297 Level FlightAware ADS-B
Tue 10:35:42 PM 39.5929 -74.9660 343° North 273 314 8,100 -1,535 Descending FlightAware ADS-B
Tue 10:35:51 PM 39.6053 -74.9680 353° North 278 320 7,800 -1,385 Descending FlightAware ADS-B
Tue 10:36:08 PM 39.6267 -74.9715 353° North 271 312 7,500 -1,273 Descending FlightAware ADS-B
Tue 10:36:24 PM 39.6469 -74.9749 353° North 265 305 7,100 -1,355 Descending FlightAware ADS-B
Tue 10:36:39 PM 39.6656 -74.9783 352° North 263 303 6,800 -1,355 Descending FlightAware ADS-B
Tue 10:36:55 PM 39.6841 -74.9822 351° North 261 300 6,400 -1,548 Descending FlightAware ADS-B
Tue 10:37:10 PM 39.7032 -74.9865 350° North 261 300 6,000 -1,548 Descending FlightAware ADS-B
Tue 10:37:26 PM 39.7224 -74.9909 350° North 261 300 5,600 -1,355 Descending FlightAware ADS-B
Tue 10:37:41 PM 39.7405 -74.9951 350° North 259 298 5,300 -1,200 Descending FlightAware ADS-B
Tue 10:37:46 PM 39.7464 -74.9963 351° North 258 297 5,200 -667 Descending FlightAware ADS-B
Tue 10:37:50 PM 39.7510 -74.9969 354° North 257 296 5,200 -750 Level FlightAware ADS-B
Tue 10:37:54 PM 39.7552 -74.9971 358° North 255 293 5,100 -750 Descending FlightAware ADS-B
Tue 10:37:58 PM 39.7601 -74.9964 North 252 290 5,100  Level FlightAware ADS-B
Tue 10:38:01 PM 39.7635 -74.9955 12° North 251 289 5,100  Level FlightAware ADS-B
Tue 10:38:05 PM 39.7677 -74.9937 18° North 249 287 5,100  Level FlightAware ADS-B
Tue 10:38:15 PM 39.7775 -74.9860 31° Northeast 241 277 5,100 353 Level FlightAware ADS-B
Tue 10:38:22 PM 39.7832 -74.9799 39° Northeast 235 270 5,200  Climbing FlightAware ADS-B
Tue 10:38:36 PM 39.7938 -74.9675 42° Northeast 222 255 5,100 -222 Descending FlightAware ADS-B
Tue 10:38:49 PM 39.8037 -74.9559 42° Northeast 212 244 5,100  Level FlightAware ADS-B
Tue 10:39:04 PM 39.8147 -74.9429 42° Northeast 209 241 5,100 194 Level FlightAware ADS-B
Tue 10:39:20 PM 39.8258 -74.9300 42° Northeast 209 241 5,200  Climbing FlightAware ADS-B
Tue 10:39:29 PM 39.8324 -74.9224 41° Northeast 209 241 5,100 -429 Descending FlightAware ADS-B
Tue 10:39:34 PM 39.8359 -74.9190 37° Northeast 206 237 5,100  Level FlightAware ADS-B
Tue 10:39:38 PM 39.8400 -74.9163 27° Northeast 202 232 5,100  Level FlightAware ADS-B
Tue 10:39:44 PM 39.8449 -74.9141 19° North 200 230 5,100 -333 Level FlightAware ADS-B
Tue 10:39:56 PM 39.8552 -74.9109 13° North 196 226 5,000 -837 Descending FlightAware ADS-B
Tue 10:40:27 PM 39.8833 -74.9039 11° North 194 223 4,500 -1,059 Descending FlightAware ADS-B
Tue 10:40:30 PM 39.8862 -74.9036 North 194 223 4,400 -1,161 Descending FlightAware ADS-B
Tue 10:40:58 PM 39.9094 -74.9133 342° North 193 222 3,900 -938 Descending FlightAware ADS-B
Tue 10:41:02 PM 39.9121 -74.9165 318° Northwest 184 212 3,900 -800 Level FlightAware ADS-B
Tue 10:41:13 PM 39.9179 -74.9256 310° West 182 209 3,700 -1,125 Descending FlightAware ADS-B
Tue 10:41:18 PM 39.9200 -74.9305 299° West 181 208 3,600 -1,200 Descending FlightAware ADS-B
Tue 10:41:23 PM 39.9211 -74.9359 285° West 181 208 3,500 -1,500 Descending FlightAware ADS-B
Tue 10:41:26 PM 39.9214 -74.9396 276° West 181 208 3,400 -1,000 Descending FlightAware ADS-B
Tue 10:41:29 PM 39.9215 -74.9429 272° West 181 208 3,400 -857 Level FlightAware ADS-B
Tue 10:41:33 PM 39.9214 -74.9476 268° West 181 208 3,300 -1,000 Descending FlightAware ADS-B
Tue 10:41:41 PM 39.9207 -74.9562 264° West 179 206 3,200 -706 Descending FlightAware ADS-B
Tue 10:41:50 PM 39.9198 -74.9661 263° West 174 200 3,100 -240 Descending FlightAware ADS-B
Tue 10:42:06 PM 39.9180 -74.9824 262° West 174 200 3,100  Level FlightAware ADS-B
Tue 10:42:16 PM 39.9168 -74.9940 262° West 177 204 3,100  Level FlightAware ADS-B
Tue 10:42:32 PM 39.9153 -75.0109 263° West 178 205 3,100 -353 Level FlightAware ADS-B
Tue 10:43:07 PM 39.9096 -75.0490 259° West 184 212 2,800 -706 Descending FlightAware ADS-B
Tue 10:43:23 PM 39.9063 -75.0660 256° West 180 207 2,500 -968 Descending FlightAware ADS-B
Tue 10:43:38 PM 39.9032 -75.0819 256° West 175 201 2,300 -750 Descending FlightAware ADS-B
Tue 10:43:55 PM 39.8999 -75.0986 256° West 162 186 2,100 -882 Descending FlightAware ADS-B
Tue 10:44:12 PM 39.8968 -75.1143 256° West 145 167 1,800 -909 Descending FlightAware ADS-B
Tue 10:44:28 PM 39.8942 -75.1271 255° West 130 150 1,600 -545 Descending FlightAware ADS-B
Tue 10:44:34 PM 39.8933 -75.1318 256° West 124 143 1,600 -400 Level FlightAware ADS-B
Tue 10:44:43 PM 39.8921 -75.1381 256° West 117 135 1,500 -818 Descending FlightAware ADS-B
Tue 10:44:56 PM 39.8904 -75.1467 256° West 109 125 1,300 -571 Descending FlightAware ADS-B
Tue 10:45:04 PM 39.8894 -75.1514 255° West 105 121 1,300 -500 Level FlightAware ADS-B
Tue 10:45:20 PM 39.8875 -75.1614 256° West 103 119 1,100 -563 Descending FlightAware ADS-B
Tue 10:45:36 PM 39.8855 -75.1710 255° West 104 120 1,000 -400 Descending FlightAware ADS-B
Tue 10:45:50 PM 39.8838 -75.1797 256° West 106 122 900 -621 Descending FlightAware ADS-B
Tue 10:46:05 PM 39.8819 -75.1892 255° West 109 125 700 -750 Descending FlightAware ADS-B
Tue 10:46:22 PM 39.8797 -75.2003 256° West 109 125 500 -545 Descending FlightAware ADS-B
Tue 10:46:38 PM 39.8777 -75.2104 256° West 109 125 400 -375 Descending FlightAware ADS-B

Login

Don't have an account? Register now (free) for customized features, flight alerts, and more!